sensor_id;sensor_type;location;lat;lon;timestamp;temperature;humidity
41262;DHT22;29629;52.532;13.352;2023-07-31T00:01:57;15.80;99.90
41262;DHT22;29629;52.532;13.352;2023-07-31T00:04:24;15.80;99.90
41262;DHT22;29629;52.532;13.352;2023-07-31T00:06:51;15.90;99.90
41262;DHT22;29629;52.532;13.352;2023-07-31T00:09:18;16.00;99.90
41262;DHT22;29629;52.532;13.352;2023-07-31T00:11:45;16.00;99.90
41262;DHT22;29629;52.532;13.352;2023-07-31T00:14:14;15.90;99.90
41262;DHT22;29629;52.532;13.352;2023-07-31T00:16:40;16.00;99.90
41262;DHT22;29629;52.532;13.352;2023-07-31T00:19:07;16.00;99.90
41262;DHT22;29629;52.532;13.352;2023-07-31T00:21:34;15.90;99.90
41262;DHT22;29629;52.532;13.352;2023-07-31T00:24:01;15.90;99.90
41262;DHT22;29629;52.532;13.352;2023-07-31T00:26:28;15.90;99.90
41262;DHT22;29629;52.532;13.352;2023-07-31T00:28:55;15.90;99.90
41262;DHT22;29629;52.532;13.352;2023-07-31T00:31:23;16.00;99.90
41262;DHT22;29629;52.532;13.352;2023-07-31T00:33:50;16.00;99.90
41262;DHT22;29629;52.532;13.352;2023-07-31T00:36:17;15.90;99.90
41262;DHT22;29629;52.532;13.352;2023-07-31T00:38:45;15.80;99.90
41262;DHT22;29629;52.532;13.352;2023-07-31T00:41:12;15.80;99.90
41262;DHT22;29629;52.532;13.352;2023-07-31T00:43:39;15.80;99.90
41262;DHT22;29629;52.532;13.352;2023-07-31T00:46:06;15.80;99.90
41262;DHT22;29629;52.532;13.352;2023-07-31T00:48:35;15.80;99.90
41262;DHT22;29629;52.532;13.352;2023-07-31T00:51:02;15.90;99.90
41262;DHT22;29629;52.532;13.352;2023-07-31T00:53:29;15.90;99.90
41262;DHT22;29629;52.532;13.352;2023-07-31T00:55:56;15.90;99.90
41262;DHT22;29629;52.532;13.352;2023-07-31T00:58:24;15.90;99.90
41262;DHT22;29629;52.532;13.352;2023-07-31T01:00:51;15.90;99.90
41262;DHT22;29629;52.532;13.352;2023-07-31T01:03:17;15.90;99.90
41262;DHT22;29629;52.532;13.352;2023-07-31T01:05:52;15.90;99.90
41262;DHT22;29629;52.532;13.352;2023-07-31T01:08:32;16.00;99.90
41262;DHT22;29629;52.532;13.352;2023-07-31T01:11:05;16.00;99.90
41262;DHT22;29629;52.532;13.352;2023-07-31T01:13:34;16.00;99.90
41262;DHT22;29629;52.532;13.352;2023-07-31T01:16:01;16.10;99.90
41262;DHT22;29629;52.532;13.352;2023-07-31T01:18:28;16.00;99.90
41262;DHT22;29629;52.532;13.352;2023-07-31T01:21:06;16.10;99.90
41262;DHT22;29629;52.532;13.352;2023-07-31T01:24:01;16.10;99.90
41262;DHT22;29629;52.532;13.352;2023-07-31T01:26:38;16.00;99.90
41262;DHT22;29629;52.532;13.352;2023-07-31T01:29:09;16.10;99.90
41262;DHT22;29629;52.532;13.352;2023-07-31T01:31:37;16.00;99.90
41262;DHT22;29629;52.532;13.352;2023-07-31T01:34:06;16.00;99.90
41262;DHT22;29629;52.532;13.352;2023-07-31T01:36:33;16.10;99.90
41262;DHT22;29629;52.532;13.352;2023-07-31T01:39:01;16.10;99.90
41262;DHT22;29629;52.532;13.352;2023-07-31T01:41:29;16.10;99.90
41262;DHT22;29629;52.532;13.352;2023-07-31T01:43:57;16.00;99.90
41262;DHT22;29629;52.532;13.352;2023-07-31T01:46:24;16.10;99.90
41262;DHT22;29629;52.532;13.352;2023-07-31T01:48:51;16.10;99.90
41262;DHT22;29629;52.532;13.352;2023-07-31T01:51:18;16.20;99.90
41262;DHT22;29629;52.532;13.352;2023-07-31T01:53:45;16.20;99.90
41262;DHT22;29629;52.532;13.352;2023-07-31T01:56:12;16.20;99.90
41262;DHT22;29629;52.532;13.352;2023-07-31T01:58:39;16.30;99.90
41262;DHT22;29629;52.532;13.352;2023-07-31T02:01:07;16.20;99.90
41262;DHT22;29629;52.532;13.352;2023-07-31T02:03:34;16.20;99.90
41262;DHT22;29629;52.532;13.352;2023-07-31T02:06:01;16.20;99.90
41262;DHT22;29629;52.532;13.352;2023-07-31T02:08:28;16.30;99.90
41262;DHT22;29629;52.532;13.352;2023-07-31T02:10:55;16.30;99.90
41262;DHT22;29629;52.532;13.352;2023-07-31T02:13:22;16.30;99.90
41262;DHT22;29629;52.532;13.352;2023-07-31T02:15:49;16.30;99.90
41262;DHT22;29629;52.532;13.352;2023-07-31T02:18:17;16.40;99.90
41262;DHT22;29629;52.532;13.352;2023-07-31T02:20:49;16.40;99.90
41262;DHT22;29629;52.532;13.352;2023-07-31T02:23:16;16.40;99.90
41262;DHT22;29629;52.532;13.352;2023-07-31T02:25:43;16.40;99.90
41262;DHT22;29629;52.532;13.352;2023-07-31T02:28:10;16.30;99.90
41262;DHT22;29629;52.532;13.352;2023-07-31T02:30:37;16.30;99.90
41262;DHT22;29629;52.532;13.352;2023-07-31T02:33:04;16.30;99.90
41262;DHT22;29629;52.532;13.352;2023-07-31T02:35:33;16.30;99.90
41262;DHT22;29629;52.532;13.352;2023-07-31T02:38:00;16.30;99.90
41262;DHT22;29629;52.532;13.352;2023-07-31T02:40:27;16.30;99.90
41262;DHT22;29629;52.532;13.352;2023-07-31T02:42:53;16.30;99.90
41262;DHT22;29629;52.532;13.352;2023-07-31T02:45:20;16.30;99.90
41262;DHT22;29629;52.532;13.352;2023-07-31T02:47:47;16.30;99.90
41262;DHT22;29629;52.532;13.352;2023-07-31T02:50:14;16.30;99.90
41262;DHT22;29629;52.532;13.352;2023-07-31T02:52:42;16.20;99.90
41262;DHT22;29629;52.532;13.352;2023-07-31T02:55:09;16.30;99.90
41262;DHT22;29629;52.532;13.352;2023-07-31T02:57:36;16.20;99.90
41262;DHT22;29629;52.532;13.352;2023-07-31T03:00:03;16.30;99.90
41262;DHT22;29629;52.532;13.352;2023-07-31T03:02:31;16.30;99.90
41262;DHT22;29629;52.532;13.352;2023-07-31T03:04:58;16.30;99.90
41262;DHT22;29629;52.532;13.352;2023-07-31T03:07:25;16.30;99.90
41262;DHT22;29629;52.532;13.352;2023-07-31T03:09:53;16.30;99.90
41262;DHT22;29629;52.532;13.352;2023-07-31T03:12:20;16.20;99.90
41262;DHT22;29629;52.532;13.352;2023-07-31T03:14:47;16.20;99.90
41262;DHT22;29629;52.532;13.352;2023-07-31T03:17:14;16.20;99.90
41262;DHT22;29629;52.532;13.352;2023-07-31T03:19:41;16.20;99.90
41262;DHT22;29629;52.532;13.352;2023-07-31T03:22:08;16.20;99.90
41262;DHT22;29629;52.532;13.352;2023-07-31T03:24:35;16.20;99.90
41262;DHT22;29629;52.532;13.352;2023-07-31T03:27:04;16.20;99.90
41262;DHT22;29629;52.532;13.352;2023-07-31T03:29:31;16.10;99.90
41262;DHT22;29629;52.532;13.352;2023-07-31T03:31:57;16.10;99.90
41262;DHT22;29629;52.532;13.352;2023-07-31T03:34:24;16.20;99.90
41262;DHT22;29629;52.532;13.352;2023-07-31T03:36:51;16.10;99.90
41262;DHT22;29629;52.532;13.352;2023-07-31T03:39:18;16.10;99.90
41262;DHT22;29629;52.532;13.352;2023-07-31T03:41:45;16.10;99.90
41262;DHT22;29629;52.532;13.352;2023-07-31T03:44:13;16.10;99.90
41262;DHT22;29629;52.532;13.352;2023-07-31T03:46:40;16.10;99.90
41262;DHT22;29629;52.532;13.352;2023-07-31T03:49:07;16.10;99.90
41262;DHT22;29629;52.532;13.352;2023-07-31T03:51:34;16.10;99.90
41262;DHT22;29629;52.532;13.352;2023-07-31T03:54:01;16.10;99.90
41262;DHT22;29629;52.532;13.352;2023-07-31T03:56:28;16.10;99.90
41262;DHT22;29629;52.532;13.352;2023-07-31T03:58:55;16.00;99.90
41262;DHT22;29629;52.532;13.352;2023-07-31T04:01:23;16.00;99.90
41262;DHT22;29629;52.532;13.352;2023-07-31T04:03:50;16.00;99.90
41262;DHT22;29629;52.532;13.352;2023-07-31T04:06:17;16.10;99.90
41262;DHT22;29629;52.532;13.352;2023-07-31T04:08:44;16.00;99.90
41262;DHT22;29629;52.532;13.352;2023-07-31T04:11:11;16.00;99.90
41262;DHT22;29629;52.532;13.352;2023-07-31T04:13:38;16.00;99.90
41262;DHT22;29629;52.532;13.352;2023-07-31T04:16:05;16.00;99.90
41262;DHT22;29629;52.532;13.352;2023-07-31T04:18:33;16.00;99.90
41262;DHT22;29629;52.532;13.352;2023-07-31T04:21:00;16.00;99.90
41262;DHT22;29629;52.532;13.352;2023-07-31T04:23:28;16.00;99.90
41262;DHT22;29629;52.532;13.352;2023-07-31T04:25:55;16.10;99.90
41262;DHT22;29629;52.532;13.352;2023-07-31T04:28:22;16.10;99.90
41262;DHT22;29629;52.532;13.352;2023-07-31T04:30:49;16.10;99.90
41262;DHT22;29629;52.532;13.352;2023-07-31T04:33:16;16.00;99.90
41262;DHT22;29629;52.532;13.352;2023-07-31T04:35:50;16.00;99.90
41262;DHT22;29629;52.532;13.352;2023-07-31T04:38:18;16.10;99.90
41262;DHT22;29629;52.532;13.352;2023-07-31T04:40:45;16.00;99.90
41262;DHT22;29629;52.532;13.352;2023-07-31T04:43:12;16.10;99.90
41262;DHT22;29629;52.532;13.352;2023-07-31T04:45:39;16.10;99.90
41262;DHT22;29629;52.532;13.352;2023-07-31T04:48:08;16.10;99.90
41262;DHT22;29629;52.532;13.352;2023-07-31T04:50:35;16.00;99.90
41262;DHT22;29629;52.532;13.352;2023-07-31T04:53:03;16.10;99.90
41262;DHT22;29629;52.532;13.352;2023-07-31T04:55:30;16.10;99.90
41262;DHT22;29629;52.532;13.352;2023-07-31T04:57:58;16.00;99.90
41262;DHT22;29629;52.532;13.352;2023-07-31T05:00:25;16.10;99.90
41262;DHT22;29629;52.532;13.352;2023-07-31T05:02:52;16.20;99.90
41262;DHT22;29629;52.532;13.352;2023-07-31T05:05:19;16.20;99.90
41262;DHT22;29629;52.532;13.352;2023-07-31T05:07:45;16.30;99.90
41262;DHT22;29629;52.532;13.352;2023-07-31T05:10:14;16.30;99.90
41262;DHT22;29629;52.532;13.352;2023-07-31T05:12:41;16.30;99.90
41262;DHT22;29629;52.532;13.352;2023-07-31T05:15:08;16.30;99.90
41262;DHT22;29629;52.532;13.352;2023-07-31T05:17:36;16.30;99.90
41262;DHT22;29629;52.532;13.352;2023-07-31T05:20:03;16.30;99.90
41262;DHT22;29629;52.532;13.352;2023-07-31T05:22:30;16.40;99.90
41262;DHT22;29629;52.532;13.352;2023-07-31T05:24:59;16.40;99.90
41262;DHT22;29629;52.532;13.352;2023-07-31T05:27:27;16.50;99.90
41262;DHT22;29629;52.532;13.352;2023-07-31T05:29:54;16.40;99.90
41262;DHT22;29629;52.532;13.352;2023-07-31T05:32:21;16.40;99.90
41262;DHT22;29629;52.532;13.352;2023-07-31T05:34:50;16.40;99.90
41262;DHT22;29629;52.532;13.352;2023-07-31T05:37:17;16.40;99.90
41262;DHT22;29629;52.532;13.352;2023-07-31T05:39:45;16.40;99.90
41262;DHT22;29629;52.532;13.352;2023-07-31T05:42:11;16.40;99.90
41262;DHT22;29629;52.532;13.352;2023-07-31T05:44:40;16.40;99.90
41262;DHT22;29629;52.532;13.352;2023-07-31T05:47:07;16.40;99.90
41262;DHT22;29629;52.532;13.352;2023-07-31T05:49:34;16.40;99.90
41262;DHT22;29629;52.532;13.352;2023-07-31T05:52:01;16.30;99.90
41262;DHT22;29629;52.532;13.352;2023-07-31T05:54:28;16.40;99.90
41262;DHT22;29629;52.532;13.352;2023-07-31T05:56:55;16.50;99.90
41262;DHT22;29629;52.532;13.352;2023-07-31T05:59:22;16.40;99.90
41262;DHT22;29629;52.532;13.352;2023-07-31T06:01:50;16.40;99.90
41262;DHT22;29629;52.532;13.352;2023-07-31T06:04:17;16.40;99.90
41262;DHT22;29629;52.532;13.352;2023-07-31T06:06:43;16.50;99.90
41262;DHT22;29629;52.532;13.352;2023-07-31T06:09:10;16.50;99.90
41262;DHT22;29629;52.532;13.352;2023-07-31T06:11:39;16.40;99.90
41262;DHT22;29629;52.532;13.352;2023-07-31T06:14:06;16.50;99.90
41262;DHT22;29629;52.532;13.352;2023-07-31T06:16:33;16.60;99.90
41262;DHT22;29629;52.532;13.352;2023-07-31T06:19:01;16.50;99.90
41262;DHT22;29629;52.532;13.352;2023-07-31T06:21:28;16.70;99.90
41262;DHT22;29629;52.532;13.352;2023-07-31T06:23:56;16.60;99.90
41262;DHT22;29629;52.532;13.352;2023-07-31T06:26:23;16.60;99.90
41262;DHT22;29629;52.532;13.352;2023-07-31T06:28:50;16.50;99.90
41262;DHT22;29629;52.532;13.352;2023-07-31T06:31:17;16.40;99.90
41262;DHT22;29629;52.532;13.352;2023-07-31T06:33:48;16.50;99.90
41262;DHT22;29629;52.532;13.352;2023-07-31T06:36:16;16.50;99.90
41262;DHT22;29629;52.532;13.352;2023-07-31T06:38:43;16.70;99.90
41262;DHT22;29629;52.532;13.352;2023-07-31T06:41:10;16.70;99.90
41262;DHT22;29629;52.532;13.352;2023-07-31T06:43:37;16.90;99.90
41262;DHT22;29629;52.532;13.352;2023-07-31T06:46:05;16.80;99.90
41262;DHT22;29629;52.532;13.352;2023-07-31T06:48:32;16.70;99.90
41262;DHT22;29629;52.532;13.352;2023-07-31T06:50:59;16.80;99.90
41262;DHT22;29629;52.532;13.352;2023-07-31T06:53:28;16.60;99.90
41262;DHT22;29629;52.532;13.352;2023-07-31T06:55:55;16.70;99.90
41262;DHT22;29629;52.532;13.352;2023-07-31T06:58:22;16.80;99.90
41262;DHT22;29629;52.532;13.352;2023-07-31T07:00:49;16.80;99.90
41262;DHT22;29629;52.532;13.352;2023-07-31T07:03:17;16.80;99.90
41262;DHT22;29629;52.532;13.352;2023-07-31T07:05:45;17.10;99.90
41262;DHT22;29629;52.532;13.352;2023-07-31T07:08:12;16.90;99.90
41262;DHT22;29629;52.532;13.352;2023-07-31T07:10:41;16.90;99.90
41262;DHT22;29629;52.532;13.352;2023-07-31T07:13:08;16.90;99.90
41262;DHT22;29629;52.532;13.352;2023-07-31T07:15:35;16.90;99.90
41262;DHT22;29629;52.532;13.352;2023-07-31T07:18:02;16.90;99.90
41262;DHT22;29629;52.532;13.352;2023-07-31T07:20:29;16.80;99.90
41262;DHT22;29629;52.532;13.352;2023-07-31T07:22:56;16.90;99.90
41262;DHT22;29629;52.532;13.352;2023-07-31T07:25:23;16.80;99.90
41262;DHT22;29629;52.532;13.352;2023-07-31T07:27:51;16.80;99.90
41262;DHT22;29629;52.532;13.352;2023-07-31T07:30:18;16.80;99.90
41262;DHT22;29629;52.532;13.352;2023-07-31T07:32:45;16.80;99.90
41262;DHT22;29629;52.532;13.352;2023-07-31T07:35:12;16.80;99.90
41262;DHT22;29629;52.532;13.352;2023-07-31T07:37:39;17.10;99.90
41262;DHT22;29629;52.532;13.352;2023-07-31T07:40:07;16.80;99.90
41262;DHT22;29629;52.532;13.352;2023-07-31T07:42:34;16.80;99.90
41262;DHT22;29629;52.532;13.352;2023-07-31T07:45:03;17.00;99.90
41262;DHT22;29629;52.532;13.352;2023-07-31T07:47:30;17.00;99.90
41262;DHT22;29629;52.532;13.352;2023-07-31T07:49:57;17.00;99.90
41262;DHT22;29629;52.532;13.352;2023-07-31T07:52:24;16.90;99.90
41262;DHT22;29629;52.532;13.352;2023-07-31T07:54:51;16.90;99.90
41262;DHT22;29629;52.532;13.352;2023-07-31T07:57:18;16.80;99.90
41262;DHT22;29629;52.532;13.352;2023-07-31T07:59:45;16.60;99.90
41262;DHT22;29629;52.532;13.352;2023-07-31T08:02:13;16.50;99.90
41262;DHT22;29629;52.532;13.352;2023-07-31T08:04:40;16.60;99.90
41262;DHT22;29629;52.532;13.352;2023-07-31T08:07:07;16.60;99.90
41262;DHT22;29629;52.532;13.352;2023-07-31T08:09:34;16.60;99.90
41262;DHT22;29629;52.532;13.352;2023-07-31T08:12:01;16.70;99.90
41262;DHT22;29629;52.532;13.352;2023-07-31T08:14:29;16.70;99.90
41262;DHT22;29629;52.532;13.352;2023-07-31T08:16:56;16.70;99.90
41262;DHT22;29629;52.532;13.352;2023-07-31T08:19:24;16.60;99.90
41262;DHT22;29629;52.532;13.352;2023-07-31T08:21:51;16.70;99.90
41262;DHT22;29629;52.532;13.352;2023-07-31T08:24:18;16.80;99.90
41262;DHT22;29629;52.532;13.352;2023-07-31T08:26:45;16.90;99.90
41262;DHT22;29629;52.532;13.352;2023-07-31T08:29:11;16.80;99.90
41262;DHT22;29629;52.532;13.352;2023-07-31T08:31:38;16.70;99.90
41262;DHT22;29629;52.532;13.352;2023-07-31T08:34:05;16.90;99.90
41262;DHT22;29629;52.532;13.352;2023-07-31T08:36:33;16.90;99.90
41262;DHT22;29629;52.532;13.352;2023-07-31T08:39:00;16.80;99.90
41262;DHT22;29629;52.532;13.352;2023-07-31T08:41:27;16.80;99.90
41262;DHT22;29629;52.532;13.352;2023-07-31T08:43:55;16.90;99.90
41262;DHT22;29629;52.532;13.352;2023-07-31T08:46:23;17.10;99.90
41262;DHT22;29629;52.532;13.352;2023-07-31T08:48:51;17.30;99.90
41262;DHT22;29629;52.532;13.352;2023-07-31T08:51:19;17.10;99.90
41262;DHT22;29629;52.532;13.352;2023-07-31T08:53:48;17.10;99.90
41262;DHT22;29629;52.532;13.352;2023-07-31T08:56:15;17.30;99.90
41262;DHT22;29629;52.532;13.352;2023-07-31T08:58:43;17.30;99.90
41262;DHT22;29629;52.532;13.352;2023-07-31T09:01:11;17.20;99.90
41262;DHT22;29629;52.532;13.352;2023-07-31T09:03:39;17.30;99.90
41262;DHT22;29629;52.532;13.352;2023-07-31T09:06:07;17.30;99.90
41262;DHT22;29629;52.532;13.352;2023-07-31T09:08:35;17.50;99.90
41262;DHT22;29629;52.532;13.352;2023-07-31T09:11:05;17.40;99.90
41262;DHT22;29629;52.532;13.352;2023-07-31T09:13:33;17.40;99.90
41262;DHT22;29629;52.532;13.352;2023-07-31T09:16:00;17.40;99.90
41262;DHT22;29629;52.532;13.352;2023-07-31T09:18:26;17.30;99.90
41262;DHT22;29629;52.532;13.352;2023-07-31T09:21:04;17.10;99.90
41262;DHT22;29629;52.532;13.352;2023-07-31T09:23:41;17.10;99.90
41262;DHT22;29629;52.532;13.352;2023-07-31T09:26:10;17.20;99.90
41262;DHT22;29629;52.532;13.352;2023-07-31T09:28:37;17.30;99.90
41262;DHT22;29629;52.532;13.352;2023-07-31T09:31:04;17.20;99.90
41262;DHT22;29629;52.532;13.352;2023-07-31T09:33:31;16.90;99.90
41262;DHT22;29629;52.532;13.352;2023-07-31T09:36:36;16.80;99.90
41262;DHT22;29629;52.532;13.352;2023-07-31T09:39:09;16.60;99.90
41262;DHT22;29629;52.532;13.352;2023-07-31T09:41:38;16.80;99.90
41262;DHT22;29629;52.532;13.352;2023-07-31T09:44:06;16.80;99.90
41262;DHT22;29629;52.532;13.352;2023-07-31T09:46:35;16.90;99.90
41262;DHT22;29629;52.532;13.352;2023-07-31T09:49:06;16.90;99.90
41262;DHT22;29629;52.532;13.352;2023-07-31T09:51:35;17.10;99.90
41262;DHT22;29629;52.532;13.352;2023-07-31T09:54:09;17.10;99.90
41262;DHT22;29629;52.532;13.352;2023-07-31T09:56:42;17.10;99.90
41262;DHT22;29629;52.532;13.352;2023-07-31T09:59:11;17.20;99.90
41262;DHT22;29629;52.532;13.352;2023-07-31T10:01:40;17.30;99.90
41262;DHT22;29629;52.532;13.352;2023-07-31T10:04:08;17.30;99.90
41262;DHT22;29629;52.532;13.352;2023-07-31T10:06:36;17.40;99.90
41262;DHT22;29629;52.532;13.352;2023-07-31T10:09:06;17.50;99.90
41262;DHT22;29629;52.532;13.352;2023-07-31T10:11:38;17.80;99.90
41262;DHT22;29629;52.532;13.352;2023-07-31T10:14:07;18.10;99.90
41262;DHT22;29629;52.532;13.352;2023-07-31T10:16:37;18.00;99.90
41262;DHT22;29629;52.532;13.352;2023-07-31T10:19:05;17.90;99.90
41262;DHT22;29629;52.532;13.352;2023-07-31T10:21:34;17.60;99.90
41262;DHT22;29629;52.532;13.352;2023-07-31T10:24:03;17.70;99.90
41262;DHT22;29629;52.532;13.352;2023-07-31T10:26:32;17.70;99.90
41262;DHT22;29629;52.532;13.352;2023-07-31T10:29:00;17.50;99.90
41262;DHT22;29629;52.532;13.352;2023-07-31T10:31:28;17.30;99.90
41262;DHT22;29629;52.532;13.352;2023-07-31T10:33:57;17.40;99.90
41262;DHT22;29629;52.532;13.352;2023-07-31T10:36:25;17.80;99.90
41262;DHT22;29629;52.532;13.352;2023-07-31T10:38:52;17.80;99.90
41262;DHT22;29629;52.532;13.352;2023-07-31T10:41:28;17.90;99.90
41262;DHT22;29629;52.532;13.352;2023-07-31T10:43:57;17.90;99.90
41262;DHT22;29629;52.532;13.352;2023-07-31T10:46:24;18.10;99.90
41262;DHT22;29629;52.532;13.352;2023-07-31T10:48:59;18.30;99.90
41262;DHT22;29629;52.532;13.352;2023-07-31T10:51:33;18.70;99.90
41262;DHT22;29629;52.532;13.352;2023-07-31T10:54:11;19.30;99.90
41262;DHT22;29629;52.532;13.352;2023-07-31T10:56:39;19.30;99.90
41262;DHT22;29629;52.532;13.352;2023-07-31T10:59:06;19.30;99.90
41262;DHT22;29629;52.532;13.352;2023-07-31T11:01:50;19.10;99.90
41262;DHT22;29629;52.532;13.352;2023-07-31T11:04:24;19.40;99.90
41262;DHT22;29629;52.532;13.352;2023-07-31T11:06:57;19.90;99.90
41262;DHT22;29629;52.532;13.352;2023-07-31T11:09:27;20.10;99.90
41262;DHT22;29629;52.532;13.352;2023-07-31T11:11:54;20.00;99.90
41262;DHT22;29629;52.532;13.352;2023-07-31T11:14:22;19.90;99.90
41262;DHT22;29629;52.532;13.352;2023-07-31T11:16:49;19.80;99.90
41262;DHT22;29629;52.532;13.352;2023-07-31T11:19:22;19.80;99.90
41262;DHT22;29629;52.532;13.352;2023-07-31T11:21:51;20.00;99.90
41262;DHT22;29629;52.532;13.352;2023-07-31T11:24:18;19.90;99.90
41262;DHT22;29629;52.532;13.352;2023-07-31T11:26:49;20.00;99.90
41262;DHT22;29629;52.532;13.352;2023-07-31T11:29:17;20.30;99.90
41262;DHT22;29629;52.532;13.352;2023-07-31T11:31:44;20.20;99.90
41262;DHT22;29629;52.532;13.352;2023-07-31T11:34:12;20.20;99.90
41262;DHT22;29629;52.532;13.352;2023-07-31T11:36:40;20.20;99.90
41262;DHT22;29629;52.532;13.352;2023-07-31T11:39:08;20.10;99.90
41262;DHT22;29629;52.532;13.352;2023-07-31T11:41:36;20.10;99.90
41262;DHT22;29629;52.532;13.352;2023-07-31T11:44:03;20.10;99.90
41262;DHT22;29629;52.532;13.352;2023-07-31T11:46:30;20.00;99.90
41262;DHT22;29629;52.532;13.352;2023-07-31T11:48:59;20.20;99.90
41262;DHT22;29629;52.532;13.352;2023-07-31T11:51:27;20.10;99.90
41262;DHT22;29629;52.532;13.352;2023-07-31T11:53:59;20.10;99.90
41262;DHT22;29629;52.532;13.352;2023-07-31T11:56:27;20.10;99.90
41262;DHT22;29629;52.532;13.352;2023-07-31T11:58:57;20.20;99.90
41262;DHT22;29629;52.532;13.352;2023-07-31T12:01:26;20.20;99.90
41262;DHT22;29629;52.532;13.352;2023-07-31T12:03:54;20.30;99.90
41262;DHT22;29629;52.532;13.352;2023-07-31T12:06:21;20.20;99.90
41262;DHT22;29629;52.532;13.352;2023-07-31T12:08:48;20.20;99.90
41262;DHT22;29629;52.532;13.352;2023-07-31T12:11:17;20.20;99.90
41262;DHT22;29629;52.532;13.352;2023-07-31T12:13:44;20.10;99.90
41262;DHT22;29629;52.532;13.352;2023-07-31T12:16:11;20.10;99.90
41262;DHT22;29629;52.532;13.352;2023-07-31T12:18:38;20.20;99.90
41262;DHT22;29629;52.532;13.352;2023-07-31T12:21:07;20.40;99.90
41262;DHT22;29629;52.532;13.352;2023-07-31T12:23:36;20.70;99.90
41262;DHT22;29629;52.532;13.352;2023-07-31T12:26:04;20.70;99.90
41262;DHT22;29629;52.532;13.352;2023-07-31T12:28:37;20.60;99.90
41262;DHT22;29629;52.532;13.352;2023-07-31T12:31:05;20.50;99.90
41262;DHT22;29629;52.532;13.352;2023-07-31T12:33:33;20.70;99.90
41262;DHT22;29629;52.532;13.352;2023-07-31T12:36:02;20.70;99.90
41262;DHT22;29629;52.532;13.352;2023-07-31T12:38:29;20.60;99.90
41262;DHT22;29629;52.532;13.352;2023-07-31T12:40:56;20.60;99.90
41262;DHT22;29629;52.532;13.352;2023-07-31T12:43:23;20.60;99.90
41262;DHT22;29629;52.532;13.352;2023-07-31T12:45:53;20.80;99.90
41262;DHT22;29629;52.532;13.352;2023-07-31T12:48:20;20.90;99.90
41262;DHT22;29629;52.532;13.352;2023-07-31T12:50:47;21.00;99.90
41262;DHT22;29629;52.532;13.352;2023-07-31T12:53:15;21.00;99.90
41262;DHT22;29629;52.532;13.352;2023-07-31T12:55:42;20.80;99.90
41262;DHT22;29629;52.532;13.352;2023-07-31T12:58:09;20.80;99.90
41262;DHT22;29629;52.532;13.352;2023-07-31T13:00:36;20.80;99.90
41262;DHT22;29629;52.532;13.352;2023-07-31T13:03:04;20.90;99.90
41262;DHT22;29629;52.532;13.352;2023-07-31T13:05:31;20.80;99.90
41262;DHT22;29629;52.532;13.352;2023-07-31T13:07:58;20.50;99.90
41262;DHT22;29629;52.532;13.352;2023-07-31T13:10:25;19.80;99.90
41262;DHT22;29629;52.532;13.352;2023-07-31T13:12:54;19.90;99.90
41262;DHT22;29629;52.532;13.352;2023-07-31T13:15:21;20.00;99.90
41262;DHT22;29629;52.532;13.352;2023-07-31T13:17:48;20.30;99.90
41262;DHT22;29629;52.532;13.352;2023-07-31T13:20:16;20.40;99.90
41262;DHT22;29629;52.532;13.352;2023-07-31T13:22:43;20.40;99.90
41262;DHT22;29629;52.532;13.352;2023-07-31T13:25:10;20.70;99.90
41262;DHT22;29629;52.532;13.352;2023-07-31T13:27:37;20.90;99.90
41262;DHT22;29629;52.532;13.352;2023-07-31T13:30:05;21.00;99.90
41262;DHT22;29629;52.532;13.352;2023-07-31T13:32:32;21.00;99.90
41262;DHT22;29629;52.532;13.352;2023-07-31T13:34:59;20.90;99.90
41262;DHT22;29629;52.532;13.352;2023-07-31T13:37:27;21.00;99.90
41262;DHT22;29629;52.532;13.352;2023-07-31T13:39:54;21.10;99.90
41262;DHT22;29629;52.532;13.352;2023-07-31T13:42:21;20.90;99.90
41262;DHT22;29629;52.532;13.352;2023-07-31T13:44:48;20.90;99.90
41262;DHT22;29629;52.532;13.352;2023-07-31T13:47:14;21.00;99.90
41262;DHT22;29629;52.532;13.352;2023-07-31T13:49:41;21.10;99.90
41262;DHT22;29629;52.532;13.352;2023-07-31T13:52:09;21.10;99.90
41262;DHT22;29629;52.532;13.352;2023-07-31T13:54:37;21.10;99.90
41262;DHT22;29629;52.532;13.352;2023-07-31T13:57:05;21.30;99.90
41262;DHT22;29629;52.532;13.352;2023-07-31T13:59:32;21.20;99.90
41262;DHT22;29629;52.532;13.352;2023-07-31T14:01:58;21.30;99.90
41262;DHT22;29629;52.532;13.352;2023-07-31T14:04:25;21.30;99.90
41262;DHT22;29629;52.532;13.352;2023-07-31T14:06:52;21.40;99.90
41262;DHT22;29629;52.532;13.352;2023-07-31T14:09:19;21.50;99.90
41262;DHT22;29629;52.532;13.352;2023-07-31T14:11:47;21.40;99.90
41262;DHT22;29629;52.532;13.352;2023-07-31T14:14:14;21.30;99.90
41262;DHT22;29629;52.532;13.352;2023-07-31T14:16:41;21.20;99.90
41262;DHT22;29629;52.532;13.352;2023-07-31T14:19:08;21.20;99.90
41262;DHT22;29629;52.532;13.352;2023-07-31T14:21:35;21.30;99.90
41262;DHT22;29629;52.532;13.352;2023-07-31T14:24:03;21.30;99.90
41262;DHT22;29629;52.532;13.352;2023-07-31T14:26:30;21.30;99.90
41262;DHT22;29629;52.532;13.352;2023-07-31T14:28:58;21.20;99.90
41262;DHT22;29629;52.532;13.352;2023-07-31T14:31:25;21.20;99.90
41262;DHT22;29629;52.532;13.352;2023-07-31T14:33:52;21.10;99.90
41262;DHT22;29629;52.532;13.352;2023-07-31T14:36:19;21.20;99.90
41262;DHT22;29629;52.532;13.352;2023-07-31T14:38:45;21.30;99.90
41262;DHT22;29629;52.532;13.352;2023-07-31T14:41:12;21.20;99.90
41262;DHT22;29629;52.532;13.352;2023-07-31T14:43:39;21.20;99.90
41262;DHT22;29629;52.532;13.352;2023-07-31T14:46:07;21.20;99.90
41262;DHT22;29629;52.532;13.352;2023-07-31T14:48:34;21.20;99.90
41262;DHT22;29629;52.532;13.352;2023-07-31T14:51:01;21.30;99.90
41262;DHT22;29629;52.532;13.352;2023-07-31T14:53:28;21.30;99.90
41262;DHT22;29629;52.532;13.352;2023-07-31T14:55:58;21.20;99.90
41262;DHT22;29629;52.532;13.352;2023-07-31T14:58:29;21.10;99.90
41262;DHT22;29629;52.532;13.352;2023-07-31T15:01:01;21.20;99.90
41262;DHT22;29629;52.532;13.352;2023-07-31T15:03:31;21.10;99.90
41262;DHT22;29629;52.532;13.352;2023-07-31T15:06:07;21.10;99.90
41262;DHT22;29629;52.532;13.352;2023-07-31T15:08:33;21.10;99.90
41262;DHT22;29629;52.532;13.352;2023-07-31T15:11:02;21.10;99.90
41262;DHT22;29629;52.532;13.352;2023-07-31T15:13:29;21.00;99.90
41262;DHT22;29629;52.532;13.352;2023-07-31T15:15:56;21.00;99.90
41262;DHT22;29629;52.532;13.352;2023-07-31T15:18:23;21.00;99.90
41262;DHT22;29629;52.532;13.352;2023-07-31T15:20:51;21.10;99.90